Black River (Missouri), Leeper (07062500)

StateMissouriLatestHigh (1720 cfs)
RiverBlack RiverRatingObservedEstimated
Updated2020-02-25 15:30 (1 hour ago)Flood - The river is flooding. Obstacles can be treacherous or deadly. The river should be avoided at this stage for casual trips and definitely for the inexperienced. Trips should be attempted only with protective gear and equipment.Flood(none)3460
Discharge1720 cfs (median: 890 cfs)High - The river is high and potentially dangerous, especially for the young and / or inexperienced. Normal stream obstacles are sometimes difficult to navigate. Extended distances can be attempted, but canoe travel may not be advisable.High(none)1125
Height4.88 feetGood - Conditions are ideal for a canoe or kayak. Boats typically will drag on fewer than one-quarter of riffles, if at all, and portages are unnecessary or rare. Normal float lengths can be attempted without a problem.Good(none)691
TrendRising (rising over 24 hours)Low - River is low but can still be floated. Some riffles are okay but most come with significant dragging and might need a portage. Float lengths should be reduced to accommodate low flow, dragging, and portages.Low(none)413
USGSExternal icon USGS Site (External icon Google Maps)Poor - River is too low to float comfortably. Most or all riffles will drag or must be portaged and some obstacles (such as slick shelf rock) cause undue problems. Avoid the river at this stage for casual paddling trips.Poor(none)218

Trending Data

Plot Image

Trips for Black River (Missouri), Leeper (07062500)

DateStartEndDistanceConditionDischargeHeightFishingDetails

A total of 0 rows are displayed.

Condition Descriptions

Fishing Conditions

Fish Species

Notes

Classic Trip List

The classic River Trips application is still available for use. It is updated with the new system using a data retrofit. It is no longer maintained. The original River Trips application is no longer updated (as of 1 Dec 2016) but can be checked for errors or for the condition of the data before it was converted to the new system.

Gauge Data Table

ObservationHeightDischargeMaximum
Discharge
Minimum
Discharge
Mean
Discharge
P05P10P20P25P50
(Median)
P75P80P90P95
2020-02-25 15:30 4.88 1720 4820 (1950) 234 (1963) 1230 362 433 509 544 890 1150 1390 3590 4090
2020-02-25 14:30 4.82 1680 4820 (1950) 234 (1963) 1230 362 433 509 544 890 1150 1390 3590 4090
2020-02-25 13:30 4.79 1660 4820 (1950) 234 (1963) 1230 362 433 509 544 890 1150 1390 3590 4090
2020-02-25 12:30 4.70 1610 4820 (1950) 234 (1963) 1230 362 433 509 544 890 1150 1390 3590 4090
2020-02-25 11:30 4.61 1550 4820 (1950) 234 (1963) 1230 362 433 509 544 890 1150 1390 3590 4090
2020-02-25 10:30 4.54 1510 4820 (1950) 234 (1963) 1230 362 433 509 544 890 1150 1390 3590 4090
2020-02-25 09:30 4.54 1510 4820 (1950) 234 (1963) 1230 362 433 509 544 890 1150 1390 3590 4090
2020-02-25 08:30 4.54 1510 4820 (1950) 234 (1963) 1230 362 433 509 544 890 1150 1390 3590 4090
2020-02-25 07:30 4.54 1510 4820 (1950) 234 (1963) 1230 362 433 509 544 890 1150 1390 3590 4090
2020-02-25 06:30 4.54 1510 4820 (1950) 234 (1963) 1230 362 433 509 544 890 1150 1390 3590 4090
2020-02-25 05:30 4.54 1510 4820 (1950) 234 (1963) 1230 362 433 509 544 890 1150 1390 3590 4090
2020-02-25 04:30 4.56 1520 4820 (1950) 234 (1963) 1230 362 433 509 544 890 1150 1390 3590 4090
2020-02-25 03:30 4.57 1520 4820 (1950) 234 (1963) 1230 362 433 509 544 890 1150 1390 3590 4090
2020-02-25 02:30 4.58 1530 4820 (1950) 234 (1963) 1230 362 433 509 544 890 1150 1390 3590 4090
2020-02-25 01:30 4.57 1520 4820 (1950) 234 (1963) 1230 362 433 509 544 890 1150 1390 3590 4090
2020-02-25 00:30 4.61 1550 4820 (1950) 234 (1963) 1230 362 433 509 544 890 1150 1390 3590 4090
2020-02-24 23:30 4.59 1540 4820 (1950) 237 (1963) 1210 344 408 494 527 920 1180 1370 3450 4090
2020-02-24 22:30 4.55 1510 4820 (1950) 237 (1963) 1210 344 408 494 527 920 1180 1370 3450 4090
2020-02-24 21:30 4.53 1500 4820 (1950) 237 (1963) 1210 344 408 494 527 920 1180 1370 3450 4090
2020-02-24 20:30 4.48 1470 4820 (1950) 237 (1963) 1210 344 408 494 527 920 1180 1370 3450 4090
2020-02-24 19:30 4.42 1430 4820 (1950) 237 (1963) 1210 344 408 494 527 920 1180 1370 3450 4090
2020-02-24 18:30 4.40 1420 4820 (1950) 237 (1963) 1210 344 408 494 527 920 1180 1370 3450 4090
2020-02-24 17:30 4.36 1400 4820 (1950) 237 (1963) 1210 344 408 494 527 920 1180 1370 3450 4090
2020-02-24 16:30 4.28 1350 4820 (1950) 237 (1963) 1210 344 408 494 527 920 1180 1370 3450 4090
2020-02-24 15:30 4.24 1320 4820 (1950) 237 (1963) 1210 344 408 494 527 920 1180 1370 3450 4090
2020-02-24 14:30 4.21 1310 4820 (1950) 237 (1963) 1210 344 408 494 527 920 1180 1370 3450 4090
2020-02-24 13:30 4.19 1290 4820 (1950) 237 (1963) 1210 344 408 494 527 920 1180 1370 3450 4090
2020-02-24 12:30 4.16 1280 4820 (1950) 237 (1963) 1210 344 408 494 527 920 1180 1370 3450 4090
2020-02-24 11:30 4.11 1250 4820 (1950) 237 (1963) 1210 344 408 494 527 920 1180 1370 3450 4090
2020-02-24 10:30 4.08 1230 4820 (1950) 237 (1963) 1210 344 408 494 527 920 1180 1370 3450 4090
2020-02-24 09:30 4.07 1230 4820 (1950) 237 (1963) 1210 344 408 494 527 920 1180 1370 3450 4090
2020-02-24 08:30 4.04 1210 4820 (1950) 237 (1963) 1210 344 408 494 527 920 1180 1370 3450 4090
2020-02-24 07:30 4.00 1190 4820 (1950) 237 (1963) 1210 344 408 494 527 920 1180 1370 3450 4090
2020-02-24 06:30 3.97 1170 4820 (1950) 237 (1963) 1210 344 408 494 527 920 1180 1370 3450 4090
2020-02-24 05:30 3.96 1160 4820 (1950) 237 (1963) 1210 344 408 494 527 920 1180 1370 3450 4090
2020-02-24 04:30 3.96 1160 4820 (1950) 237 (1963) 1210 344 408 494 527 920 1180 1370 3450 4090
2020-02-24 03:30 3.94 1150 4820 (1950) 237 (1963) 1210 344 408 494 527 920 1180 1370 3450 4090
2020-02-24 02:30 3.91 1130 4820 (1950) 237 (1963) 1210 344 408 494 527 920 1180 1370 3450 4090
2020-02-24 01:30 3.88 1120 4820 (1950) 237 (1963) 1210 344 408 494 527 920 1180 1370 3450 4090
2020-02-24 00:30 3.88 1120 4820 (1950) 237 (1963) 1210 344 408 494 527 920 1180 1370 3450 4090
2020-02-23 23:30 3.88 1120 4640 (1950) 227 (1972) 1230 337 409 510 528 865 1400 1660 3120 4040
2020-02-23 22:30 3.87 1110 4640 (1950) 227 (1972) 1230 337 409 510 528 865 1400 1660 3120 4040
2020-02-23 21:30 3.87 1110 4640 (1950) 227 (1972) 1230 337 409 510 528 865 1400 1660 3120 4040
2020-02-23 20:30 3.87 1110 4640 (1950) 227 (1972) 1230 337 409 510 528 865 1400 1660 3120 4040
2020-02-23 19:30 3.86 1110 4640 (1950) 227 (1972) 1230 337 409 510 528 865 1400 1660 3120 4040
2020-02-23 18:30 3.88 1120 4640 (1950) 227 (1972) 1230 337 409 510 528 865 1400 1660 3120 4040
2020-02-23 17:30 3.87 1110 4640 (1950) 227 (1972) 1230 337 409 510 528 865 1400 1660 3120 4040
2020-02-23 16:30 3.87 1110 4640 (1950) 227 (1972) 1230 337 409 510 528 865 1400 1660 3120 4040
2020-02-23 15:30 3.87 1110 4640 (1950) 227 (1972) 1230 337 409 510 528 865 1400 1660 3120 4040
2020-02-23 14:30 3.88 1120 4640 (1950) 227 (1972) 1230 337 409 510 528 865 1400 1660 3120 4040
2020-02-23 13:30 3.89 1120 4640 (1950) 227 (1972) 1230 337 409 510 528 865 1400 1660 3120 4040
2020-02-23 12:30 3.87 1110 4640 (1950) 227 (1972) 1230 337 409 510 528 865 1400 1660 3120 4040
2020-02-23 11:30 3.88 1120 4640 (1950) 227 (1972) 1230 337 409 510 528 865 1400 1660 3120 4040
2020-02-23 10:30 3.87 1110 4640 (1950) 227 (1972) 1230 337 409 510 528 865 1400 1660 3120 4040
2020-02-23 09:30 3.87 1110 4640 (1950) 227 (1972) 1230 337 409 510 528 865 1400 1660 3120 4040
2020-02-23 08:30 3.89 1120 4640 (1950) 227 (1972) 1230 337 409 510 528 865 1400 1660 3120 4040
2020-02-23 07:30 3.87 1110 4640 (1950) 227 (1972) 1230 337 409 510 528 865 1400 1660 3120 4040
2020-02-23 06:30 3.89 1120 4640 (1950) 227 (1972) 1230 337 409 510 528 865 1400 1660 3120 4040
2020-02-23 05:30 3.89 1120 4640 (1950) 227 (1972) 1230 337 409 510 528 865 1400 1660 3120 4040
2020-02-23 04:30 3.90 1130 4640 (1950) 227 (1972) 1230 337 409 510 528 865 1400 1660 3120 4040
2020-02-23 03:30 3.90 1130 4640 (1950) 227 (1972) 1230 337 409 510 528 865 1400 1660 3120 4040
2020-02-23 02:30 3.89 1120 4640 (1950) 227 (1972) 1230 337 409 510 528 865 1400 1660 3120 4040
2020-02-23 01:30 3.90 1130 4640 (1950) 227 (1972) 1230 337 409 510 528 865 1400 1660 3120 4040
2020-02-23 00:30 3.88 1120 4640 (1950) 227 (1972) 1230 337 409 510 528 865 1400 1660 3120 4040
2020-02-22 23:30 3.90 1130 4640 (1950) 226 (1972) 1300 295 423 475 530 810 1830 2280 3290 4060
2020-02-22 22:30 3.88 1120 4640 (1950) 226 (1972) 1300 295 423 475 530 810 1830 2280 3290 4060
2020-02-22 21:30 3.90 1130 4640 (1950) 226 (1972) 1300 295 423 475 530 810 1830 2280 3290 4060
2020-02-22 20:30 3.91 1130 4640 (1950) 226 (1972) 1300 295 423 475 530 810 1830 2280 3290 4060
2020-02-22 19:30 3.91 1130 4640 (1950) 226 (1972) 1300 295 423 475 530 810 1830 2280 3290 4060
2020-02-22 18:30 3.90 1130 4640 (1950) 226 (1972) 1300 295 423 475 530 810 1830 2280 3290 4060
2020-02-22 17:30 3.90 1130 4640 (1950) 226 (1972) 1300 295 423 475 530 810 1830 2280 3290 4060
2020-02-22 16:30 3.90 1130 4640 (1950) 226 (1972) 1300 295 423 475 530 810 1830 2280 3290 4060
2020-02-22 15:30 3.90 1130 4640 (1950) 226 (1972) 1300 295 423 475 530 810 1830 2280 3290 4060
2020-02-22 14:30 3.91 1130 4640 (1950) 226 (1972) 1300 295 423 475 530 810 1830 2280 3290 4060
2020-02-22 13:30 3.90 1130 4640 (1950) 226 (1972) 1300 295 423 475 530 810 1830 2280 3290 4060
2020-02-22 12:30 3.90 1130 4640 (1950) 226 (1972) 1300 295 423 475 530 810 1830 2280 3290 4060
2020-02-22 11:30 3.92 1140 4640 (1950) 226 (1972) 1300 295 423 475 530 810 1830 2280 3290 4060
2020-02-22 10:30 3.91 1130 4640 (1950) 226 (1972) 1300 295 423 475 530 810 1830 2280 3290 4060
2020-02-22 09:30 3.92 1140 4640 (1950) 226 (1972) 1300 295 423 475 530 810 1830 2280 3290 4060
2020-02-22 08:30 3.95 1160 4640 (1950) 226 (1972) 1300 295 423 475 530 810 1830 2280 3290 4060
2020-02-22 07:30 3.93 1150 4640 (1950) 226 (1972) 1300 295 423 475 530 810 1830 2280 3290 4060
2020-02-22 06:30 3.94 1150 4640 (1950) 226 (1972) 1300 295 423 475 530 810 1830 2280 3290 4060
2020-02-22 05:30 3.93 1150 4640 (1950) 226 (1972) 1300 295 423 475 530 810 1830 2280 3290 4060
2020-02-22 04:30 3.96 1160 4640 (1950) 226 (1972) 1300 295 423 475 530 810 1830 2280 3290 4060
2020-02-22 03:30 3.94 1150 4640 (1950) 226 (1972) 1300 295 423 475 530 810 1830 2280 3290 4060
2020-02-22 02:30 3.94 1150 4640 (1950) 226 (1972) 1300 295 423 475 530 810 1830 2280 3290 4060
2020-02-22 01:30 3.96 1160 4640 (1950) 226 (1972) 1300 295 423 475 530 810 1830 2280 3290 4060
2020-02-22 00:30 3.96 1160 4640 (1950) 226 (1972) 1300 295 423 475 530 810 1830 2280 3290 4060
2020-02-21 23:30 3.98 1170 4640 (1950) 230 (1972) 1280 299 403 478 508 845 1660 2020 3300 3960
2020-02-21 22:30 3.96 1160 4640 (1950) 230 (1972) 1280 299 403 478 508 845 1660 2020 3300 3960
2020-02-21 21:30 3.97 1170 4640 (1950) 230 (1972) 1280 299 403 478 508 845 1660 2020 3300 3960
2020-02-21 20:30 3.97 1170 4640 (1950) 230 (1972) 1280 299 403 478 508 845 1660 2020 3300 3960
2020-02-21 19:30 4.00 1190 4640 (1950) 230 (1972) 1280 299 403 478 508 845 1660 2020 3300 3960
2020-02-21 18:30 3.99 1180 4640 (1950) 230 (1972) 1280 299 403 478 508 845 1660 2020 3300 3960
2020-02-21 17:30 4.00 1190 4640 (1950) 230 (1972) 1280 299 403 478 508 845 1660 2020 3300 3960
2020-02-21 16:30 4.03 1200 4640 (1950) 230 (1972) 1280 299 403 478 508 845 1660 2020 3300 3960
2020-02-21 15:30 4.06 1220 4640 (1950) 230 (1972) 1280 299 403 478 508 845 1660 2020 3300 3960
2020-02-21 14:30 4.10 1240 4640 (1950) 230 (1972) 1280 299 403 478 508 845 1660 2020 3300 3960
2020-02-21 13:30 4.17 1280 4640 (1950) 230 (1972) 1280 299 403 478 508 845 1660 2020 3300 3960
2020-02-21 12:30 4.24 1320 4640 (1950) 230 (1972) 1280 299 403 478 508 845 1660 2020 3300 3960
2020-02-21 11:30 4.32 1370 4640 (1950) 230 (1972) 1280 299 403 478 508 845 1660 2020 3300 3960
2020-02-21 10:30 4.36 1400 4640 (1950) 230 (1972) 1280 299 403 478 508 845 1660 2020 3300 3960
2020-02-21 09:30 4.38 1410 4640 (1950) 230 (1972) 1280 299 403 478 508 845 1660 2020 3300 3960
2020-02-21 08:30 4.40 1420 4640 (1950) 230 (1972) 1280 299 403 478 508 845 1660 2020 3300 3960
2020-02-21 07:30 4.39 1410 4640 (1950) 230 (1972) 1280 299 403 478 508 845 1660 2020 3300 3960
2020-02-21 06:30 4.39 1410 4640 (1950) 230 (1972) 1280 299 403 478 508 845 1660 2020 3300 3960
2020-02-21 05:30 4.40 1420 4640 (1950) 230 (1972) 1280 299 403 478 508 845 1660 2020 3300 3960
2020-02-21 04:30 4.41 1430 4640 (1950) 230 (1972) 1280 299 403 478 508 845 1660 2020 3300 3960
2020-02-21 03:30 4.42 1430 4640 (1950) 230 (1972) 1280 299 403 478 508 845 1660 2020 3300 3960
2020-02-21 02:30 4.42 1430 4640 (1950) 230 (1972) 1280 299 403 478 508 845 1660 2020 3300 3960
2020-02-21 01:30 4.41 1430 4640 (1950) 230 (1972) 1280 299 403 478 508 845 1660 2020 3300 3960
2020-02-21 00:30 4.42 1430 4640 (1950) 230 (1972) 1280 299 403 478 508 845 1660 2020 3300 3960
2020-02-20 23:30 4.42 1430 4350 (1949) 228 (1972) 1340 306 404 485 498 794 2080 2540 3460 3850
2020-02-20 22:30 4.42 1430 4350 (1949) 228 (1972) 1340 306 404 485 498 794 2080 2540 3460 3850
2020-02-20 21:30 4.44 1440 4350 (1949) 228 (1972) 1340 306 404 485 498 794 2080 2540 3460 3850
2020-02-20 20:30 4.43 1440 4350 (1949) 228 (1972) 1340 306 404 485 498 794 2080 2540 3460 3850
2020-02-20 19:30 4.45 1450 4350 (1949) 228 (1972) 1340 306 404 485 498 794 2080 2540 3460 3850
2020-02-20 18:30 4.46 1460 4350 (1949) 228 (1972) 1340 306 404 485 498 794 2080 2540 3460 3850
2020-02-20 17:30 4.46 1460 4350 (1949) 228 (1972) 1340 306 404 485 498 794 2080 2540 3460 3850
2020-02-20 16:30 4.49 1470 4350 (1949) 228 (1972) 1340 306 404 485 498 794 2080 2540 3460 3850
2020-02-20 15:30 4.51 1490 4350 (1949) 228 (1972) 1340 306 404 485 498 794 2080 2540 3460 3850
2020-02-20 14:30 4.56 1520 4350 (1949) 228 (1972) 1340 306 404 485 498 794 2080 2540 3460 3850
2020-02-20 13:30 4.58 1530 4350 (1949) 228 (1972) 1340 306 404 485 498 794 2080 2540 3460 3850
2020-02-20 12:30 4.65 1570 4350 (1949) 228 (1972) 1340 306 404 485 498 794 2080 2540 3460 3850
2020-02-20 11:30 4.72 1620 4350 (1949) 228 (1972) 1340 306 404 485 498 794 2080 2540 3460 3850
2020-02-20 10:30 4.81 1680 4350 (1949) 228 (1972) 1340 306 404 485 498 794 2080 2540 3460 3850
2020-02-20 09:30 4.83 1690 4350 (1949) 228 (1972) 1340 306 404 485 498 794 2080 2540 3460 3850
2020-02-20 08:30 4.84 1700 4350 (1949) 228 (1972) 1340 306 404 485 498 794 2080 2540 3460 3850
2020-02-20 07:30 4.84 1700 4350 (1949) 228 (1972) 1340 306 404 485 498 794 2080 2540 3460 3850
2020-02-20 06:30 4.86 1710 4350 (1949) 228 (1972) 1340 306 404 485 498 794 2080 2540 3460 3850
2020-02-20 05:30 4.85 1700 4350 (1949) 228 (1972) 1340 306 404 485 498 794 2080 2540 3460 3850
2020-02-20 04:30 4.87 1720 4350 (1949) 228 (1972) 1340 306 404 485 498 794 2080 2540 3460 3850
2020-02-20 03:30 4.87 1720 4350 (1949) 228 (1972) 1340 306 404 485 498 794 2080 2540 3460 3850
2020-02-20 02:30 4.89 1730 4350 (1949) 228 (1972) 1340 306 404 485 498 794 2080 2540 3460 3850
2020-02-20 01:30 4.89 1730 4350 (1949) 228 (1972) 1340 306 404 485 498 794 2080 2540 3460 3850
2020-02-20 00:30 4.91 1740 4350 (1949) 228 (1972) 1340 306 404 485 498 794 2080 2540 3460 3850
2020-02-19 23:30 4.94 1760 4440 (1949) 230 (1972) 1290 324 398 461 496 820 1520 2200 3440 3800
2020-02-19 22:30 4.95 1770 4440 (1949) 230 (1972) 1290 324 398 461 496 820 1520 2200 3440 3800
2020-02-19 21:30 4.97 1780 4440 (1949) 230 (1972) 1290 324 398 461 496 820 1520 2200 3440 3800
2020-02-19 20:30 4.99 1800 4440 (1949) 230 (1972) 1290 324 398 461 496 820 1520 2200 3440 3800
2020-02-19 19:30 5.05 1840 4440 (1949) 230 (1972) 1290 324 398 461 496 820 1520 2200 3440 3800
2020-02-19 18:30 5.12 1880 4440 (1949) 230 (1972) 1290 324 398 461 496 820 1520 2200 3440 3800
2020-02-19 17:30 5.20 1940 4440 (1949) 230 (1972) 1290 324 398 461 496 820 1520 2200 3440 3800
2020-02-19 16:30 5.33 2030 4440 (1949) 230 (1972) 1290 324 398 461 496 820 1520 2200 3440 3800
2020-02-19 15:30 5.52 2160 4440 (1949) 230 (1972) 1290 324 398 461 496 820 1520 2200 3440 3800
2020-02-19 14:30 5.76 2340 4440 (1949) 230 (1972) 1290 324 398 461 496 820 1520 2200 3440 3800
2020-02-19 13:30 6.04 2550 4440 (1949) 230 (1972) 1290 324 398 461 496 820 1520 2200 3440 3800
2020-02-19 12:30 6.32 2760 4440 (1949) 230 (1972) 1290 324 398 461 496 820 1520 2200 3440 3800
2020-02-19 11:30 6.49 2900 4440 (1949) 230 (1972) 1290 324 398 461 496 820 1520 2200 3440 3800
2020-02-19 10:30 6.60 2990 4440 (1949) 230 (1972) 1290 324 398 461 496 820 1520 2200 3440 3800
2020-02-19 09:30 6.61 3000 4440 (1949) 230 (1972) 1290 324 398 461 496 820 1520 2200 3440 3800
2020-02-19 08:30 6.64 3020 4440 (1949) 230 (1972) 1290 324 398 461 496 820 1520 2200 3440 3800
2020-02-19 07:30 6.65 3030 4440 (1949) 230 (1972) 1290 324 398 461 496 820 1520 2200 3440 3800
2020-02-19 06:30 6.64 3020 4440 (1949) 230 (1972) 1290 324 398 461 496 820 1520 2200 3440 3800
2020-02-19 05:30 6.66 3040 4440 (1949) 230 (1972) 1290 324 398 461 496 820 1520 2200 3440 3800
2020-02-19 04:30 6.67 3050 4440 (1949) 230 (1972) 1290 324 398 461 496 820 1520 2200 3440 3800
2020-02-19 03:30 6.66 3040 4440 (1949) 230 (1972) 1290 324 398 461 496 820 1520 2200 3440 3800
2020-02-19 02:30 6.69 3060 4440 (1949) 230 (1972) 1290 324 398 461 496 820 1520 2200 3440 3800
2020-02-19 01:30 6.69 3060 4440 (1949) 230 (1972) 1290 324 398 461 496 820 1520 2200 3440 3800
2020-02-19 00:30 6.67 3050 4440 (1949) 230 (1972) 1290 324 398 461 496 820 1520 2200 3440 3800
2020-02-18 23:30 6.69 3060 4440 (1949) 235 (1972) 1280 351 397 468 499 762 1390 2120 3500 3740
2020-02-18 22:30 6.68 3050 4440 (1949) 235 (1972) 1280 351 397 468 499 762 1390 2120 3500 3740
2020-02-18 21:30 6.70 3070 4440 (1949) 235 (1972) 1280 351 397 468 499 762 1390 2120 3500 3740
2020-02-18 20:30 6.70 3070 4440 (1949) 235 (1972) 1280 351 397 468 499 762 1390 2120 3500 3740
2020-02-18 19:30 6.71 3080 4440 (1949) 235 (1972) 1280 351 397 468 499 762 1390 2120 3500 3740
2020-02-18 18:30 6.71 3080 4440 (1949) 235 (1972) 1280 351 397 468 499 762 1390 2120 3500 3740
2020-02-18 17:30 6.71 3080 4440 (1949) 235 (1972) 1280 351 397 468 499 762 1390 2120 3500 3740
2020-02-18 16:30 6.71 3080 4440 (1949) 235 (1972) 1280 351 397 468 499 762 1390 2120 3500 3740
2020-02-18 15:30 6.74 3100 4440 (1949) 235 (1972) 1280 351 397 468 499 762 1390 2120 3500 3740
2020-02-18 14:30 6.74 3100 4440 (1949) 235 (1972) 1280 351 397 468 499 762 1390 2120 3500 3740
2020-02-18 13:30 6.74 3100 4440 (1949) 235 (1972) 1280 351 397 468 499 762 1390 2120 3500 3740
2020-02-18 12:30 6.75 3110 4440 (1949) 235 (1972) 1280 351 397 468 499 762 1390 2120 3500 3740
2020-02-18 11:30 6.76 3120 4440 (1949) 235 (1972) 1280 351 397 468 499 762 1390 2120 3500 3740
2020-02-18 10:30 6.77 3130 4440 (1949) 235 (1972) 1280 351 397 468 499 762 1390 2120 3500 3740
2020-02-18 09:30 6.79 3140 4440 (1949) 235 (1972) 1280 351 397 468 499 762 1390 2120 3500 3740
2020-02-18 08:30 6.80 3150 4440 (1949) 235 (1972) 1280 351 397 468 499 762 1390 2120 3500 3740
2020-02-18 07:30 6.80 3150 4440 (1949) 235 (1972) 1280 351 397 468 499 762 1390 2120 3500 3740
2020-02-18 06:30 6.82 3170 4440 (1949) 235 (1972) 1280 351 397 468 499 762 1390 2120 3500 3740
2020-02-18 05:30 6.82 3170 4440 (1949) 235 (1972) 1280 351 397 468 499 762 1390 2120 3500 3740
2020-02-18 04:30 6.81 3160 4440 (1949) 235 (1972) 1280 351 397 468 499 762 1390 2120 3500 3740
2020-02-18 03:30 6.82 3170 4440 (1949) 235 (1972) 1280 351 397 468 499 762 1390 2120 3500 3740
2020-02-18 02:30 6.84 3190 4440 (1949) 235 (1972) 1280 351 397 468 499 762 1390 2120 3500 3740
2020-02-18 01:30 6.83 3180 4440 (1949) 235 (1972) 1280 351 397 468 499 762 1390 2120 3500 3740
2020-02-18 00:30 6.82 3170 4440 (1949) 235 (1972) 1280 351 397 468 499 762 1390 2120 3500 3740

A total of 184 rows are displayed for years 1949 through 2019.